sensor_id;sensor_type;location;lat;lon;timestamp;P1;durP1;ratioP1;P2;durP2;ratioP2
20859;SDS011;10590;48.154;11.514;2022-12-18T00:04:14;74.00;;;29.50;;
20859;SDS011;10590;48.154;11.514;2022-12-18T00:09:21;73.13;;;28.93;;
20859;SDS011;10590;48.154;11.514;2022-12-18T00:14:22;67.10;;;26.90;;
20859;SDS011;10590;48.154;11.514;2022-12-18T00:19:24;56.57;;;24.33;;
20859;SDS011;10590;48.154;11.514;2022-12-18T00:24:27;77.60;;;29.17;;
20859;SDS011;10590;48.154;11.514;2022-12-18T00:29:29;68.90;;;28.63;;
20859;SDS011;10590;48.154;11.514;2022-12-18T00:34:30;90.63;;;32.70;;
20859;SDS011;10590;48.154;11.514;2022-12-18T00:39:33;84.73;;;30.77;;
20859;SDS011;10590;48.154;11.514;2022-12-18T00:44:35;80.17;;;30.63;;
20859;SDS011;10590;48.154;11.514;2022-12-18T00:49:36;100.20;;;32.53;;
20859;SDS011;10590;48.154;11.514;2022-12-18T00:54:39;89.00;;;32.30;;
20859;SDS011;10590;48.154;11.514;2022-12-18T00:59:41;86.80;;;31.13;;
20859;SDS011;10590;48.154;11.514;2022-12-18T01:04:43;98.70;;;33.70;;
20859;SDS011;10590;48.154;11.514;2022-12-18T01:09:46;111.77;;;34.17;;
20859;SDS011;10590;48.154;11.514;2022-12-18T01:14:47;89.23;;;31.53;;
20859;SDS011;10590;48.154;11.514;2022-12-18T01:19:49;97.13;;;31.97;;
20859;SDS011;10590;48.154;11.514;2022-12-18T01:24:52;84.40;;;31.70;;
20859;SDS011;10590;48.154;11.514;2022-12-18T01:29:53;77.40;;;30.20;;
20859;SDS011;10590;48.154;11.514;2022-12-18T01:34:55;82.53;;;30.37;;
20859;SDS011;10590;48.154;11.514;2022-12-18T01:39:58;74.23;;;28.13;;
20859;SDS011;10590;48.154;11.514;2022-12-18T01:45:01;74.23;;;28.63;;
20859;SDS011;10590;48.154;11.514;2022-12-18T01:50:07;76.93;;;28.80;;
20859;SDS011;10590;48.154;11.514;2022-12-18T01:55:13;85.73;;;31.93;;
20859;SDS011;10590;48.154;11.514;2022-12-18T02:00:18;79.73;;;28.93;;
20859;SDS011;10590;48.154;11.514;2022-12-18T02:05:23;68.93;;;26.97;;
20859;SDS011;10590;48.154;11.514;2022-12-18T02:10:35;67.13;;;25.43;;
20859;SDS011;10590;48.154;11.514;2022-12-18T02:15:48;70.40;;;27.03;;
20859;SDS011;10590;48.154;11.514;2022-12-18T02:20:57;83.50;;;30.13;;
20859;SDS011;10590;48.154;11.514;2022-12-18T02:26:13;83.03;;;30.13;;
20859;SDS011;10590;48.154;11.514;2022-12-18T02:31:19;73.93;;;29.23;;
20859;SDS011;10590;48.154;11.514;2022-12-18T02:36:24;78.87;;;30.07;;
20859;SDS011;10590;48.154;11.514;2022-12-18T02:41:29;74.37;;;29.10;;
20859;SDS011;10590;48.154;11.514;2022-12-18T02:46:32;85.17;;;30.23;;
20859;SDS011;10590;48.154;11.514;2022-12-18T02:51:38;80.17;;;31.20;;
20859;SDS011;10590;48.154;11.514;2022-12-18T02:56:50;100.63;;;34.20;;
20859;SDS011;10590;48.154;11.514;2022-12-18T03:01:55;93.20;;;32.37;;
20859;SDS011;10590;48.154;11.514;2022-12-18T03:07:01;89.50;;;32.57;;
20859;SDS011;10590;48.154;11.514;2022-12-18T03:12:09;83.70;;;29.80;;
20859;SDS011;10590;48.154;11.514;2022-12-18T03:17:26;86.67;;;31.43;;
20859;SDS011;10590;48.154;11.514;2022-12-18T03:22:30;86.97;;;31.63;;
20859;SDS011;10590;48.154;11.514;2022-12-18T03:27:36;82.10;;;30.37;;
20859;SDS011;10590;48.154;11.514;2022-12-18T03:32:40;80.43;;;29.90;;
20859;SDS011;10590;48.154;11.514;2022-12-18T03:37:45;82.53;;;30.77;;
20859;SDS011;10590;48.154;11.514;2022-12-18T03:42:49;79.93;;;30.20;;
20859;SDS011;10590;48.154;11.514;2022-12-18T03:47:59;92.30;;;32.23;;
20859;SDS011;10590;48.154;11.514;2022-12-18T03:53:05;81.67;;;30.17;;
20859;SDS011;10590;48.154;11.514;2022-12-18T03:58:17;92.63;;;32.37;;
20859;SDS011;10590;48.154;11.514;2022-12-18T04:03:21;86.90;;;33.07;;
20859;SDS011;10590;48.154;11.514;2022-12-18T04:08:25;88.70;;;32.30;;
20859;SDS011;10590;48.154;11.514;2022-12-18T04:13:29;79.40;;;31.03;;
20859;SDS011;10590;48.154;11.514;2022-12-18T04:18:34;86.27;;;30.80;;
20859;SDS011;10590;48.154;11.514;2022-12-18T04:23:36;88.80;;;31.13;;
20859;SDS011;10590;48.154;11.514;2022-12-18T04:28:39;82.03;;;30.23;;
20859;SDS011;10590;48.154;11.514;2022-12-18T04:33:40;76.30;;;28.17;;
20859;SDS011;10590;48.154;11.514;2022-12-18T04:38:42;77.90;;;29.53;;
20859;SDS011;10590;48.154;11.514;2022-12-18T04:43:45;80.73;;;30.37;;
20859;SDS011;10590;48.154;11.514;2022-12-18T04:48:46;77.50;;;29.07;;
20859;SDS011;10590;48.154;11.514;2022-12-18T04:53:48;72.03;;;28.33;;
20859;SDS011;10590;48.154;11.514;2022-12-18T04:58:51;85.73;;;30.00;;
20859;SDS011;10590;48.154;11.514;2022-12-18T05:03:53;51.87;;;21.47;;
20859;SDS011;10590;48.154;11.514;2022-12-18T05:08:54;71.70;;;28.00;;
20859;SDS011;10590;48.154;11.514;2022-12-18T05:13:57;75.10;;;29.57;;
20859;SDS011;10590;48.154;11.514;2022-12-18T05:18:59;69.37;;;27.47;;
20859;SDS011;10590;48.154;11.514;2022-12-18T05:24:00;71.47;;;27.50;;
20859;SDS011;10590;48.154;11.514;2022-12-18T05:29:03;71.40;;;28.20;;
20859;SDS011;10590;48.154;11.514;2022-12-18T05:34:05;66.57;;;27.67;;
20859;SDS011;10590;48.154;11.514;2022-12-18T05:39:07;68.63;;;26.07;;
20859;SDS011;10590;48.154;11.514;2022-12-18T05:44:10;62.90;;;25.13;;
20859;SDS011;10590;48.154;11.514;2022-12-18T05:49:11;66.73;;;25.83;;
20859;SDS011;10590;48.154;11.514;2022-12-18T05:54:13;69.57;;;27.30;;
20859;SDS011;10590;48.154;11.514;2022-12-18T05:59:16;64.97;;;27.53;;
20859;SDS011;10590;48.154;11.514;2022-12-18T06:04:17;63.47;;;26.07;;
20859;SDS011;10590;48.154;11.514;2022-12-18T06:09:19;58.57;;;24.90;;
20859;SDS011;10590;48.154;11.514;2022-12-18T06:14:22;63.57;;;26.50;;
20859;SDS011;10590;48.154;11.514;2022-12-18T06:19:23;58.77;;;25.07;;
20859;SDS011;10590;48.154;11.514;2022-12-18T06:24:25;62.03;;;26.53;;
20859;SDS011;10590;48.154;11.514;2022-12-18T06:29:28;62.20;;;25.50;;
20859;SDS011;10590;48.154;11.514;2022-12-18T06:34:29;61.43;;;23.30;;
20859;SDS011;10590;48.154;11.514;2022-12-18T06:39:31;60.20;;;26.87;;
20859;SDS011;10590;48.154;11.514;2022-12-18T06:44:34;63.03;;;26.77;;
20859;SDS011;10590;48.154;11.514;2022-12-18T06:49:35;62.03;;;25.97;;
20859;SDS011;10590;48.154;11.514;2022-12-18T06:54:37;56.73;;;25.10;;
20859;SDS011;10590;48.154;11.514;2022-12-18T06:59:40;60.47;;;23.93;;
20859;SDS011;10590;48.154;11.514;2022-12-18T07:04:41;60.47;;;24.63;;
20859;SDS011;10590;48.154;11.514;2022-12-18T07:09:43;63.67;;;25.33;;
20859;SDS011;10590;48.154;11.514;2022-12-18T07:14:46;66.37;;;26.43;;
20859;SDS011;10590;48.154;11.514;2022-12-18T07:19:47;65.10;;;26.53;;
20859;SDS011;10590;48.154;11.514;2022-12-18T07:24:49;69.30;;;27.87;;
20859;SDS011;10590;48.154;11.514;2022-12-18T07:29:52;70.47;;;26.90;;
20859;SDS011;10590;48.154;11.514;2022-12-18T07:34:53;56.30;;;25.23;;
20859;SDS011;10590;48.154;11.514;2022-12-18T07:39:55;64.50;;;24.50;;
20859;SDS011;10590;48.154;11.514;2022-12-18T07:44:58;59.40;;;22.87;;
20859;SDS011;10590;48.154;11.514;2022-12-18T07:50:01;61.43;;;24.70;;
20859;SDS011;10590;48.154;11.514;2022-12-18T07:55:03;64.83;;;25.20;;
20859;SDS011;10590;48.154;11.514;2022-12-18T08:00:07;67.17;;;25.33;;
20859;SDS011;10590;48.154;11.514;2022-12-18T08:05:09;60.90;;;24.17;;
20859;SDS011;10590;48.154;11.514;2022-12-18T08:10:11;56.93;;;24.40;;
20859;SDS011;10590;48.154;11.514;2022-12-18T08:15:14;58.63;;;24.13;;
20859;SDS011;10590;48.154;11.514;2022-12-18T08:20:15;57.50;;;23.57;;
20859;SDS011;10590;48.154;11.514;2022-12-18T08:25:18;60.17;;;25.40;;
20859;SDS011;10590;48.154;11.514;2022-12-18T08:30:21;57.43;;;22.90;;
20859;SDS011;10590;48.154;11.514;2022-12-18T08:35:22;53.33;;;23.70;;
20859;SDS011;10590;48.154;11.514;2022-12-18T08:40:24;51.63;;;24.13;;
20859;SDS011;10590;48.154;11.514;2022-12-18T08:45:27;55.73;;;22.83;;
20859;SDS011;10590;48.154;11.514;2022-12-18T08:50:28;50.60;;;22.73;;
20859;SDS011;10590;48.154;11.514;2022-12-18T08:55:30;51.33;;;22.93;;
20859;SDS011;10590;48.154;11.514;2022-12-18T09:00:36;51.13;;;21.67;;
20859;SDS011;10590;48.154;11.514;2022-12-18T09:05:37;56.10;;;24.00;;
20859;SDS011;10590;48.154;11.514;2022-12-18T09:10:41;46.00;;;21.27;;
20859;SDS011;10590;48.154;11.514;2022-12-18T09:15:45;50.20;;;22.10;;
20859;SDS011;10590;48.154;11.514;2022-12-18T09:20:47;53.40;;;22.83;;
20859;SDS011;10590;48.154;11.514;2022-12-18T09:25:50;49.27;;;21.80;;
20859;SDS011;10590;48.154;11.514;2022-12-18T09:30:53;51.60;;;21.73;;
20859;SDS011;10590;48.154;11.514;2022-12-18T09:35:54;49.60;;;21.60;;
20859;SDS011;10590;48.154;11.514;2022-12-18T09:40:57;48.00;;;22.10;;
20859;SDS011;10590;48.154;11.514;2022-12-18T09:46:04;48.60;;;19.60;;
20859;SDS011;10590;48.154;11.514;2022-12-18T09:51:11;46.00;;;20.40;;
20859;SDS011;10590;48.154;11.514;2022-12-18T09:56:16;43.57;;;20.53;;
20859;SDS011;10590;48.154;11.514;2022-12-18T10:01:24;52.53;;;21.37;;
20859;SDS011;10590;48.154;11.514;2022-12-18T10:06:27;48.93;;;20.40;;
20859;SDS011;10590;48.154;11.514;2022-12-18T10:11:39;49.87;;;20.93;;
20859;SDS011;10590;48.154;11.514;2022-12-18T10:16:53;48.57;;;20.77;;
20859;SDS011;10590;48.154;11.514;2022-12-18T10:22:02;46.87;;;21.03;;
20859;SDS011;10590;48.154;11.514;2022-12-18T10:27:18;45.17;;;20.60;;
20859;SDS011;10590;48.154;11.514;2022-12-18T10:32:27;44.40;;;20.17;;
20859;SDS011;10590;48.154;11.514;2022-12-18T10:37:30;43.20;;;19.07;;
20859;SDS011;10590;48.154;11.514;2022-12-18T10:42:32;50.63;;;22.50;;
20859;SDS011;10590;48.154;11.514;2022-12-18T10:47:35;48.23;;;23.27;;
20859;SDS011;10590;48.154;11.514;2022-12-18T10:52:37;51.90;;;22.73;;
20859;SDS011;10590;48.154;11.514;2022-12-18T10:57:39;49.23;;;23.00;;
20859;SDS011;10590;48.154;11.514;2022-12-18T11:02:42;49.33;;;22.23;;
20859;SDS011;10590;48.154;11.514;2022-12-18T11:07:47;43.83;;;21.43;;
20859;SDS011;10590;48.154;11.514;2022-12-18T11:12:56;49.83;;;21.37;;
20859;SDS011;10590;48.154;11.514;2022-12-18T11:18:17;43.50;;;20.07;;
20859;SDS011;10590;48.154;11.514;2022-12-18T11:23:23;41.40;;;21.00;;
20859;SDS011;10590;48.154;11.514;2022-12-18T11:28:27;46.27;;;21.17;;
20859;SDS011;10590;48.154;11.514;2022-12-18T11:33:36;46.43;;;21.50;;
20859;SDS011;10590;48.154;11.514;2022-12-18T11:38:40;44.13;;;21.23;;
20859;SDS011;10590;48.154;11.514;2022-12-18T11:43:45;44.33;;;21.07;;
20859;SDS011;10590;48.154;11.514;2022-12-18T11:48:54;44.60;;;22.33;;
20859;SDS011;10590;48.154;11.514;2022-12-18T11:54:04;49.97;;;22.77;;
20859;SDS011;10590;48.154;11.514;2022-12-18T11:59:15;51.00;;;22.57;;
20859;SDS011;10590;48.154;11.514;2022-12-18T12:04:32;46.70;;;22.10;;
20859;SDS011;10590;48.154;11.514;2022-12-18T12:09:48;46.13;;;21.30;;
20859;SDS011;10590;48.154;11.514;2022-12-18T12:14:59;48.87;;;21.67;;
20859;SDS011;10590;48.154;11.514;2022-12-18T12:20:13;49.00;;;22.13;;
20859;SDS011;10590;48.154;11.514;2022-12-18T12:25:25;47.17;;;21.20;;
20859;SDS011;10590;48.154;11.514;2022-12-18T12:30:35;42.70;;;19.90;;
20859;SDS011;10590;48.154;11.514;2022-12-18T12:35:49;43.70;;;19.93;;
20859;SDS011;10590;48.154;11.514;2022-12-18T12:40:57;46.53;;;21.40;;
20859;SDS011;10590;48.154;11.514;2022-12-18T12:46:03;47.30;;;20.53;;
20859;SDS011;10590;48.154;11.514;2022-12-18T12:51:09;40.57;;;19.90;;
20859;SDS011;10590;48.154;11.514;2022-12-18T12:56:16;45.17;;;19.63;;
20859;SDS011;10590;48.154;11.514;2022-12-18T13:01:23;41.27;;;20.57;;
20859;SDS011;10590;48.154;11.514;2022-12-18T13:06:35;43.87;;;20.60;;
20859;SDS011;10590;48.154;11.514;2022-12-18T13:11:43;45.63;;;21.10;;
20859;SDS011;10590;48.154;11.514;2022-12-18T13:17:22;45.23;;;21.80;;
20859;SDS011;10590;48.154;11.514;2022-12-18T13:22:31;46.20;;;21.43;;
20859;SDS011;10590;48.154;11.514;2022-12-18T13:38:55;45.47;;;21.33;;
20859;SDS011;10590;48.154;11.514;2022-12-18T13:44:12;45.27;;;20.87;;
20859;SDS011;10590;48.154;11.514;2022-12-18T13:49:22;45.20;;;20.27;;
20859;SDS011;10590;48.154;11.514;2022-12-18T13:54:30;49.37;;;21.77;;
20859;SDS011;10590;48.154;11.514;2022-12-18T13:59:35;44.20;;;20.00;;
20859;SDS011;10590;48.154;11.514;2022-12-18T14:04:38;50.43;;;22.27;;
20859;SDS011;10590;48.154;11.514;2022-12-18T14:09:41;45.20;;;21.57;;
20859;SDS011;10590;48.154;11.514;2022-12-18T14:14:46;45.20;;;20.67;;
20859;SDS011;10590;48.154;11.514;2022-12-18T14:19:50;52.20;;;22.30;;
20859;SDS011;10590;48.154;11.514;2022-12-18T14:25:10;51.13;;;23.83;;
20859;SDS011;10590;48.154;11.514;2022-12-18T14:30:29;56.70;;;25.47;;
20859;SDS011;10590;48.154;11.514;2022-12-18T14:35:32;89.60;;;38.80;;
20859;SDS011;10590;48.154;11.514;2022-12-18T14:40:36;56.97;;;26.23;;
20859;SDS011;10590;48.154;11.514;2022-12-18T14:45:38;55.17;;;25.47;;
20859;SDS011;10590;48.154;11.514;2022-12-18T14:50:42;49.73;;;22.03;;
20859;SDS011;10590;48.154;11.514;2022-12-18T14:55:46;50.80;;;21.07;;
20859;SDS011;10590;48.154;11.514;2022-12-18T15:00:48;45.83;;;21.07;;
20859;SDS011;10590;48.154;11.514;2022-12-18T15:05:50;71.67;;;30.30;;
20859;SDS011;10590;48.154;11.514;2022-12-18T15:10:53;60.93;;;27.23;;
20859;SDS011;10590;48.154;11.514;2022-12-18T15:15:56;51.13;;;21.83;;
20859;SDS011;10590;48.154;11.514;2022-12-18T15:21:07;64.30;;;25.77;;
20859;SDS011;10590;48.154;11.514;2022-12-18T15:26:12;51.57;;;21.37;;
20859;SDS011;10590;48.154;11.514;2022-12-18T15:31:22;54.57;;;23.40;;
20859;SDS011;10590;48.154;11.514;2022-12-18T15:36:29;57.57;;;24.50;;
20859;SDS011;10590;48.154;11.514;2022-12-18T15:41:32;56.57;;;25.07;;
20859;SDS011;10590;48.154;11.514;2022-12-18T15:46:36;57.80;;;25.43;;
20859;SDS011;10590;48.154;11.514;2022-12-18T15:51:49;62.40;;;24.47;;
20859;SDS011;10590;48.154;11.514;2022-12-18T15:56:54;58.83;;;25.50;;
20859;SDS011;10590;48.154;11.514;2022-12-18T16:02:14;59.77;;;24.60;;
20859;SDS011;10590;48.154;11.514;2022-12-18T16:07:18;62.00;;;24.93;;
20859;SDS011;10590;48.154;11.514;2022-12-18T16:12:24;65.63;;;24.30;;
20859;SDS011;10590;48.154;11.514;2022-12-18T16:17:26;54.00;;;23.40;;
20859;SDS011;10590;48.154;11.514;2022-12-18T16:22:28;54.17;;;23.77;;
20859;SDS011;10590;48.154;11.514;2022-12-18T16:27:32;60.27;;;24.93;;
20859;SDS011;10590;48.154;11.514;2022-12-18T16:32:33;53.80;;;23.63;;
20859;SDS011;10590;48.154;11.514;2022-12-18T16:37:35;58.67;;;24.70;;
20859;SDS011;10590;48.154;11.514;2022-12-18T16:42:39;50.93;;;23.03;;
20859;SDS011;10590;48.154;11.514;2022-12-18T16:47:42;57.70;;;24.13;;
20859;SDS011;10590;48.154;11.514;2022-12-18T16:52:44;56.00;;;23.50;;
20859;SDS011;10590;48.154;11.514;2022-12-18T16:57:47;61.67;;;24.20;;
20859;SDS011;10590;48.154;11.514;2022-12-18T17:02:49;57.97;;;25.10;;
20859;SDS011;10590;48.154;11.514;2022-12-18T17:07:50;61.90;;;25.43;;
20859;SDS011;10590;48.154;11.514;2022-12-18T17:12:53;58.70;;;26.00;;
20859;SDS011;10590;48.154;11.514;2022-12-18T17:17:55;57.83;;;24.93;;
20859;SDS011;10590;48.154;11.514;2022-12-18T17:22:57;59.27;;;25.57;;
20859;SDS011;10590;48.154;11.514;2022-12-18T17:28:00;53.37;;;24.07;;
20859;SDS011;10590;48.154;11.514;2022-12-18T17:33:01;60.80;;;25.13;;
20859;SDS011;10590;48.154;11.514;2022-12-18T17:38:03;63.53;;;27.60;;
20859;SDS011;10590;48.154;11.514;2022-12-18T17:43:06;64.10;;;26.77;;
20859;SDS011;10590;48.154;11.514;2022-12-18T17:48:08;61.30;;;26.00;;
20859;SDS011;10590;48.154;11.514;2022-12-18T17:53:10;59.33;;;24.80;;
20859;SDS011;10590;48.154;11.514;2022-12-18T17:58:13;63.13;;;27.67;;
20859;SDS011;10590;48.154;11.514;2022-12-18T18:03:15;65.77;;;26.90;;
20859;SDS011;10590;48.154;11.514;2022-12-18T18:08:17;71.73;;;28.87;;
20859;SDS011;10590;48.154;11.514;2022-12-18T18:13:21;72.27;;;28.33;;
20859;SDS011;10590;48.154;11.514;2022-12-18T18:18:41;68.60;;;28.00;;
20859;SDS011;10590;48.154;11.514;2022-12-18T18:23:43;66.03;;;28.23;;
20859;SDS011;10590;48.154;11.514;2022-12-18T18:28:46;65.67;;;26.83;;
20859;SDS011;10590;48.154;11.514;2022-12-18T18:33:48;67.17;;;27.67;;
20859;SDS011;10590;48.154;11.514;2022-12-18T18:38:50;62.20;;;26.53;;
20859;SDS011;10590;48.154;11.514;2022-12-18T18:43:54;65.90;;;27.90;;
20859;SDS011;10590;48.154;11.514;2022-12-18T18:48:56;64.87;;;27.83;;
20859;SDS011;10590;48.154;11.514;2022-12-18T18:53:58;69.80;;;27.47;;
20859;SDS011;10590;48.154;11.514;2022-12-18T18:59:03;72.27;;;27.83;;
20859;SDS011;10590;48.154;11.514;2022-12-18T19:04:05;65.13;;;28.77;;
20859;SDS011;10590;48.154;11.514;2022-12-18T19:09:07;72.77;;;29.80;;
20859;SDS011;10590;48.154;11.514;2022-12-18T19:14:11;72.23;;;28.97;;
20859;SDS011;10590;48.154;11.514;2022-12-18T19:19:30;70.07;;;29.23;;
20859;SDS011;10590;48.154;11.514;2022-12-18T19:24:32;77.93;;;32.20;;
20859;SDS011;10590;48.154;11.514;2022-12-18T19:29:35;79.40;;;31.00;;
20859;SDS011;10590;48.154;11.514;2022-12-18T19:34:36;81.80;;;31.83;;
20859;SDS011;10590;48.154;11.514;2022-12-18T19:39:38;80.80;;;31.13;;
20859;SDS011;10590;48.154;11.514;2022-12-18T19:44:41;115.97;;;46.53;;
20859;SDS011;10590;48.154;11.514;2022-12-18T19:49:43;81.10;;;29.57;;
20859;SDS011;10590;48.154;11.514;2022-12-18T19:54:44;67.77;;;27.80;;
20859;SDS011;10590;48.154;11.514;2022-12-18T19:59:47;75.60;;;29.37;;
20859;SDS011;10590;48.154;11.514;2022-12-18T20:04:49;87.13;;;31.57;;
20859;SDS011;10590;48.154;11.514;2022-12-18T20:09:50;81.50;;;30.43;;
20859;SDS011;10590;48.154;11.514;2022-12-18T20:14:53;84.60;;;32.53;;
20859;SDS011;10590;48.154;11.514;2022-12-18T20:19:55;82.80;;;32.13;;
20859;SDS011;10590;48.154;11.514;2022-12-18T20:24:57;79.40;;;30.73;;
20859;SDS011;10590;48.154;11.514;2022-12-18T20:30:00;81.03;;;30.43;;
20859;SDS011;10590;48.154;11.514;2022-12-18T20:35:02;80.93;;;30.67;;
20859;SDS011;10590;48.154;11.514;2022-12-18T20:40:04;78.97;;;31.73;;
20859;SDS011;10590;48.154;11.514;2022-12-18T20:45:08;83.33;;;33.67;;
20859;SDS011;10590;48.154;11.514;2022-12-18T20:50:10;80.90;;;31.87;;
20859;SDS011;10590;48.154;11.514;2022-12-18T20:55:12;77.30;;;30.77;;
20859;SDS011;10590;48.154;11.514;2022-12-18T21:00:15;79.57;;;30.53;;
20859;SDS011;10590;48.154;11.514;2022-12-18T21:05:17;79.43;;;31.40;;
20859;SDS011;10590;48.154;11.514;2022-12-18T21:10:18;78.60;;;32.67;;
20859;SDS011;10590;48.154;11.514;2022-12-18T21:15:21;82.60;;;32.27;;
20859;SDS011;10590;48.154;11.514;2022-12-18T21:20:23;76.13;;;30.27;;
20859;SDS011;10590;48.154;11.514;2022-12-18T21:25:25;74.07;;;29.20;;
20859;SDS011;10590;48.154;11.514;2022-12-18T21:30:27;76.70;;;29.40;;
20859;SDS011;10590;48.154;11.514;2022-12-18T21:35:29;66.10;;;28.50;;
20859;SDS011;10590;48.154;11.514;2022-12-18T21:40:30;79.17;;;30.00;;
20859;SDS011;10590;48.154;11.514;2022-12-18T21:45:34;71.17;;;29.00;;
20859;SDS011;10590;48.154;11.514;2022-12-18T21:50:35;75.03;;;29.50;;
20859;SDS011;10590;48.154;11.514;2022-12-18T21:55:37;76.93;;;28.47;;
20859;SDS011;10590;48.154;11.514;2022-12-18T22:00:39;80.27;;;30.00;;
20859;SDS011;10590;48.154;11.514;2022-12-18T22:05:41;73.53;;;29.70;;
20859;SDS011;10590;48.154;11.514;2022-12-18T22:10:42;80.53;;;30.70;;
20859;SDS011;10590;48.154;11.514;2022-12-18T22:15:45;83.03;;;31.80;;
20859;SDS011;10590;48.154;11.514;2022-12-18T22:26:21;74.27;;;29.60;;
20859;SDS011;10590;48.154;11.514;2022-12-18T22:31:25;77.83;;;31.00;;
20859;SDS011;10590;48.154;11.514;2022-12-18T22:36:26;76.37;;;29.93;;
20859;SDS011;10590;48.154;11.514;2022-12-18T22:41:29;84.23;;;30.43;;
20859;SDS011;10590;48.154;11.514;2022-12-18T22:46:32;75.00;;;31.87;;
20859;SDS011;10590;48.154;11.514;2022-12-18T22:51:35;76.37;;;28.10;;
20859;SDS011;10590;48.154;11.514;2022-12-18T22:56:37;72.00;;;26.73;;
20859;SDS011;10590;48.154;11.514;2022-12-18T23:01:40;77.40;;;28.57;;
20859;SDS011;10590;48.154;11.514;2022-12-18T23:06:42;73.87;;;29.67;;
20859;SDS011;10590;48.154;11.514;2022-12-18T23:11:45;77.07;;;30.23;;
20859;SDS011;10590;48.154;11.514;2022-12-18T23:16:49;72.10;;;27.57;;
20859;SDS011;10590;48.154;11.514;2022-12-18T23:21:50;70.13;;;29.67;;
20859;SDS011;10590;48.154;11.514;2022-12-18T23:26:52;72.80;;;27.73;;
20859;SDS011;10590;48.154;11.514;2022-12-18T23:31:55;72.97;;;29.00;;
20859;SDS011;10590;48.154;11.514;2022-12-18T23:36:56;68.83;;;27.40;;
20859;SDS011;10590;48.154;11.514;2022-12-18T23:42:00;77.03;;;28.73;;
20859;SDS011;10590;48.154;11.514;2022-12-18T23:47:02;71.23;;;27.10;;
20859;SDS011;10590;48.154;11.514;2022-12-18T23:52:06;69.40;;;28.00;;
20859;SDS011;10590;48.154;11.514;2022-12-18T23:57:07;73.83;;;27.83;;
